Terminal Aerodrome Forecast
Issued by NWS Topeka, KS

Home | Current Version | Previous Version | Graphics & Text | Print | Product List | Glossary On
Versions: 1 2 3 4 5 6 7 8 9 10 11 12 13 14 15 16 17 18 19 20 21 22
000
FTUS43 KTOP 241316 AAA
TAFTOP
TAF AMD
KTOP 241316Z 2413/2512 30012G22KT P6SM SCT008 OVC009
     FM241900 30018G27KT P6SM VCSH BKN015
     FM250000 32014G24KT P6SM OVC025
     FM250200 32012G22KT P6SM OVC035
     FM250800 32012KT P6SM SCT100=

USA.gov is the U.S. government's official web portal to all federal, state and local government web resources and services.